createdAt,value
2018-05-26T00:02:15.256Z,10.00
2018-05-26T00:04:44.341Z,9.50
2018-05-26T00:07:13.550Z,11.00
2018-05-26T00:09:45.157Z,10.23
2018-05-26T00:12:14.107Z,9.93
2018-05-26T00:14:43.289Z,11.10
2018-05-26T00:17:14.225Z,10.83
2018-05-26T00:19:43.466Z,10.57
2018-05-26T00:22:12.428Z,11.67
2018-05-26T00:24:42.247Z,11.73
2018-05-26T00:27:11.341Z,11.60
2018-05-26T00:29:40.332Z,11.40
2018-05-26T00:32:10.138Z,12.00
2018-05-26T00:34:40.064Z,10.67
2018-05-26T00:37:09.082Z,10.60
2018-05-26T00:39:40.272Z,11.13
2018-05-26T00:42:09.235Z,10.60
2018-05-26T00:44:38.189Z,11.13
2018-05-26T00:47:10.100Z,12.50
2018-05-26T00:49:39.153Z,11.30
2018-05-26T00:52:08.256Z,12.00
2018-05-26T00:54:37.442Z,12.70
2018-05-26T00:57:06.540Z,11.30
2018-05-26T00:59:35.529Z,11.97
2018-05-26T01:04:39.976Z,11.47
2018-05-26T01:07:08.863Z,12.40
2018-05-26T01:09:39.394Z,12.30
2018-05-26T01:12:08.389Z,11.83
2018-05-26T01:14:37.399Z,11.73
2018-05-26T01:17:08.152Z,12.30
2018-05-26T01:19:37.277Z,12.00
2018-05-26T01:22:06.412Z,12.67
2018-05-26T01:24:35.536Z,12.40
2018-05-26T01:27:04.534Z,12.70
2018-05-26T01:29:33.496Z,13.47
2018-05-26T01:32:04.196Z,12.13
2018-05-26T01:34:33.431Z,12.17
2018-05-26T01:37:02.323Z,12.50
2018-05-26T01:39:31.417Z,11.00
2018-05-26T01:42:00.411Z,12.43
2018-05-26T01:44:29.337Z,12.60
2018-05-26T01:46:58.535Z,12.00
2018-05-26T01:49:27.537Z,12.50
2018-05-26T01:51:56.491Z,11.27
2018-05-26T01:54:25.511Z,11.43
2018-05-26T01:56:54.473Z,11.90
2018-05-26T01:59:34.636Z,11.37
2018-05-26T02:02:03.531Z,11.70
2018-05-26T02:04:32.556Z,11.00
2018-05-26T02:07:02.433Z,11.83
2018-05-26T02:09:32.149Z,10.83
2018-05-26T02:12:01.143Z,11.83
2018-05-26T02:14:30.260Z,11.00
2018-05-26T02:16:59.233Z,10.87
2018-05-26T02:19:28.225Z,12.23
2018-05-26T02:21:57.955Z,10.90
2018-05-26T02:24:26.832Z,10.87
2018-05-26T02:26:55.927Z,10.03
2018-05-26T02:29:25.023Z,9.53
2018-05-26T02:31:54.840Z,9.10
2018-05-26T02:34:23.836Z,10.10
2018-05-26T02:36:52.901Z,8.90
2018-05-26T02:39:22.025Z,9.10
2018-05-26T02:41:50.916Z,10.17
2018-05-26T02:44:20.628Z,9.07
2018-05-26T02:46:50.940Z,9.50
2018-05-26T02:49:20.054Z,10.10
2018-05-26T02:51:49.353Z,9.00
2018-05-26T02:54:18.317Z,8.73
2018-05-26T02:56:47.443Z,10.13
2018-05-26T02:59:17.312Z,9.47
2018-05-26T03:01:46.281Z,8.67
2018-05-26T03:04:20.980Z,9.13
2018-05-26T03:06:56.016Z,9.80
2018-05-26T03:09:30.646Z,10.90
2018-05-26T03:12:05.467Z,9.47
2018-05-26T03:14:39.997Z,9.20
2018-05-26T03:17:09.091Z,9.30
2018-05-26T03:19:38.525Z,9.20
2018-05-26T03:22:08.421Z,10.03
2018-05-26T03:24:38.127Z,12.60
2018-05-26T03:27:07.116Z,9.83
2018-05-26T03:32:10.433Z,8.30
2018-05-26T03:34:39.356Z,9.00
2018-05-26T03:37:08.315Z,9.97
2018-05-26T03:39:38.161Z,9.63
2018-05-26T03:42:07.300Z,9.43
2018-05-26T03:47:10.265Z,8.20
2018-05-26T03:49:39.839Z,8.53
2018-05-26T03:52:08.841Z,8.60
2018-05-26T03:54:49.505Z,8.50
2018-05-26T03:57:31.164Z,8.63
2018-05-26T04:00:11.532Z,9.20
2018-05-26T04:02:40.856Z,8.73
2018-05-26T04:05:09.739Z,8.20
2018-05-26T04:07:38.783Z,7.97
2018-05-26T04:10:07.733Z,8.90
2018-05-26T04:12:36.749Z,8.20
2018-05-26T04:15:05.731Z,8.43
2018-05-26T04:17:35.569Z,8.20
2018-05-26T04:20:04.479Z,7.40
2018-05-26T04:22:33.427Z,8.63
2018-05-26T04:25:04.166Z,8.47
2018-05-26T04:27:33.253Z,8.03
2018-05-26T04:30:02.224Z,8.63
2018-05-26T04:32:31.288Z,7.73
2018-05-26T04:35:00.247Z,9.83
2018-05-26T04:37:29.240Z,10.00
2018-05-26T04:39:59.045Z,10.87
2018-05-26T04:42:28.037Z,9.60
2018-05-26T04:44:57.545Z,8.83
2018-05-26T04:47:26.645Z,10.97
2018-05-26T04:49:56.351Z,9.90
2018-05-26T04:52:25.267Z,11.27
2018-05-26T04:54:54.247Z,8.83
2018-05-26T04:57:23.236Z,8.17
2018-05-26T04:59:52.130Z,7.50
2018-05-26T05:02:21.990Z,8.00
2018-05-26T05:04:51.143Z,7.77
2018-05-26T05:07:26.585Z,8.20
2018-05-26T05:09:55.690Z,7.73
2018-05-26T05:12:25.500Z,7.63
2018-05-26T05:17:28.600Z,6.97
2018-05-26T05:19:59.066Z,7.37
2018-05-26T05:25:02.137Z,7.03
2018-05-26T05:27:31.067Z,7.30
2018-05-26T05:30:00.847Z,12.20
2018-05-26T05:32:29.977Z,10.03
2018-05-26T05:34:58.937Z,6.83
2018-05-26T05:37:28.753Z,7.23
2018-05-26T05:39:57.743Z,7.77
2018-05-26T05:42:26.631Z,7.33
2018-05-26T05:44:55.746Z,6.80
2018-05-26T05:47:24.931Z,6.63
2018-05-26T05:49:54.004Z,6.37
2018-05-26T05:52:22.895Z,6.50
2018-05-26T05:54:54.605Z,6.93
2018-05-26T05:57:23.468Z,6.37
2018-05-26T05:59:52.460Z,7.60
2018-05-26T06:02:21.561Z,7.60
2018-05-26T06:04:50.495Z,5.83
2018-05-26T06:07:19.585Z,6.40
2018-05-26T06:09:48.581Z,5.40
2018-05-26T06:12:17.536Z,6.27
2018-05-26T06:14:47.659Z,5.70
2018-05-26T06:17:17.584Z,6.00
2018-05-26T06:19:46.669Z,6.50
2018-05-26T06:22:15.678Z,5.10
2018-05-26T06:27:18.676Z,6.10
2018-05-26T06:29:47.566Z,5.73
2018-05-26T06:32:16.667Z,5.93
2018-05-26T06:34:45.657Z,6.47
2018-05-26T06:37:14.651Z,5.87
2018-05-26T06:39:45.966Z,6.20
2018-05-26T06:42:14.937Z,6.33
2018-05-26T06:44:43.861Z,6.10
2018-05-26T06:47:14.696Z,5.77
2018-05-26T06:49:43.613Z,6.37
2018-05-26T06:52:12.520Z,5.90
2018-05-26T06:54:42.450Z,6.17
2018-05-26T06:57:11.620Z,7.17
2018-05-26T06:59:40.615Z,6.60
2018-05-26T07:02:11.380Z,6.20
2018-05-26T07:04:40.547Z,5.67
2018-05-26T07:07:09.572Z,5.90
2018-05-26T07:09:38.538Z,6.97
2018-05-26T07:12:07.636Z,7.33
2018-05-26T07:14:36.528Z,6.60
2018-05-26T07:17:05.660Z,5.80
2018-05-26T07:19:34.730Z,6.10
2018-05-26T07:22:03.710Z,5.30
2018-05-26T07:27:07.755Z,6.50
2018-05-26T07:29:36.745Z,5.93
2018-05-26T07:34:40.152Z,4.87
2018-05-26T07:37:09.248Z,6.23
2018-05-26T07:39:38.402Z,5.50
2018-05-26T07:42:07.440Z,5.20
2018-05-26T07:44:36.642Z,5.40
2018-05-26T07:47:06.149Z,5.63
2018-05-26T07:49:35.448Z,5.30
2018-05-26T07:52:05.655Z,5.73
2018-05-26T07:54:34.671Z,5.77
2018-05-26T07:57:03.661Z,5.57
2018-05-26T07:59:32.665Z,4.90
2018-05-26T08:02:02.567Z,5.03
2018-05-26T08:04:31.697Z,5.27
2018-05-26T08:07:01.801Z,5.10
2018-05-26T08:09:31.705Z,5.67
2018-05-26T08:12:00.624Z,5.90
2018-05-26T08:14:29.590Z,5.30
2018-05-26T08:16:58.728Z,5.17
2018-05-26T08:19:28.231Z,5.43
2018-05-26T08:21:57.288Z,5.33
2018-05-26T08:24:28.567Z,5.10
2018-05-26T08:26:57.634Z,6.00
2018-05-26T08:29:26.575Z,5.90
2018-05-26T08:31:55.595Z,5.83
2018-05-26T08:34:24.482Z,5.80
2018-05-26T08:36:53.502Z,5.80
2018-05-26T08:39:23.352Z,5.47
2018-05-26T08:41:52.315Z,5.90
2018-05-26T08:44:22.330Z,4.67
2018-05-26T08:46:52.246Z,5.10
2018-05-26T08:49:21.220Z,5.77
2018-05-26T08:51:50.681Z,5.00
2018-05-26T08:54:19.674Z,4.83
2018-05-26T08:56:49.354Z,5.77
2018-05-26T08:59:18.859Z,5.63
2018-05-26T09:01:49.690Z,5.37
2018-05-26T09:04:18.790Z,5.43
2018-05-26T09:06:47.789Z,5.20
2018-05-26T09:09:18.619Z,5.70
2018-05-26T09:11:47.621Z,6.07
2018-05-26T09:14:16.560Z,5.60
2018-05-26T09:16:46.831Z,6.10
2018-05-26T09:19:15.727Z,6.37
2018-05-26T09:21:44.677Z,5.57
2018-05-26T09:24:13.757Z,5.30
2018-05-26T09:26:42.711Z,5.53
2018-05-26T09:29:11.523Z,6.50
2018-05-26T09:34:16.359Z,6.60
2018-05-26T09:36:45.295Z,5.03
2018-05-26T09:39:14.129Z,4.93
2018-05-26T09:41:43.029Z,4.70
2018-05-26T09:44:12.022Z,6.40
2018-05-26T09:46:41.145Z,4.40
2018-05-26T09:49:11.717Z,4.67
2018-05-26T09:51:40.741Z,4.33
2018-05-26T09:54:09.845Z,4.30
2018-05-26T09:56:38.838Z,4.57
2018-05-26T09:59:07.771Z,5.40
2018-05-26T10:01:37.844Z,5.00
2018-05-26T10:04:06.801Z,6.07
2018-05-26T10:06:35.836Z,5.30
2018-05-26T10:09:05.927Z,5.30
2018-05-26T10:11:35.358Z,6.63
2018-05-26T10:14:04.520Z,6.60
2018-05-26T10:16:33.478Z,6.30
2018-05-26T10:19:02.600Z,5.60
2018-05-26T10:21:31.537Z,5.80
2018-05-26T10:24:00.773Z,6.23
2018-05-26T10:26:29.730Z,6.43
2018-05-26T10:28:59.341Z,6.23
2018-05-26T10:31:28.741Z,6.03
2018-05-26T10:33:57.641Z,5.67
2018-05-26T10:36:26.661Z,5.70
2018-05-26T10:38:58.177Z,6.33
2018-05-26T10:41:27.094Z,6.60
2018-05-26T10:43:56.002Z,5.77
2018-05-26T10:49:01.477Z,6.00
2018-05-26T10:51:30.529Z,6.30
2018-05-26T10:54:01.264Z,6.33
2018-05-26T10:56:30.702Z,5.83
2018-05-26T10:58:59.799Z,6.30
2018-05-26T11:01:29.575Z,5.20
2018-05-26T11:03:58.467Z,5.50
2018-05-26T11:06:27.717Z,5.67
2018-05-26T11:08:56.842Z,5.90
2018-05-26T11:11:26.587Z,5.23
2018-05-26T11:13:55.551Z,5.37
2018-05-26T11:16:24.886Z,4.60
2018-05-26T11:18:53.972Z,6.20
2018-05-26T11:21:22.806Z,5.27
2018-05-26T11:23:54.000Z,4.97
2018-05-26T11:26:22.941Z,5.00
2018-05-26T11:28:56.015Z,5.70
2018-05-26T11:31:25.792Z,5.10
2018-05-26T11:33:54.895Z,5.60
2018-05-26T11:36:26.763Z,5.80
2018-05-26T11:38:55.757Z,5.90
2018-05-26T11:41:26.190Z,5.33
2018-05-26T11:43:56.716Z,4.97
2018-05-26T11:46:25.707Z,6.70
2018-05-26T11:48:54.596Z,5.33
2018-05-26T11:51:23.495Z,5.00
2018-05-26T11:53:52.281Z,4.90
2018-05-26T11:56:21.200Z,4.73
2018-05-26T11:58:50.171Z,5.70
2018-05-26T12:01:20.268Z,5.63
2018-05-26T12:03:49.060Z,5.67
2018-05-26T12:06:18.810Z,6.17
2018-05-26T12:08:47.957Z,5.30
2018-05-26T12:11:16.822Z,5.83
2018-05-26T12:13:47.559Z,5.60
2018-05-26T12:16:16.516Z,5.83
2018-05-26T12:18:45.503Z,6.03
2018-05-26T12:21:16.951Z,5.80
2018-05-26T12:23:46.048Z,5.80
2018-05-26T12:26:15.050Z,7.00
2018-05-26T12:28:44.017Z,6.07
2018-05-26T12:31:14.912Z,6.37
2018-05-26T12:33:43.917Z,5.80
2018-05-26T12:36:13.889Z,6.43
2018-05-26T12:38:43.341Z,6.20
2018-05-26T12:41:12.275Z,5.50
2018-05-26T12:43:41.385Z,5.93
2018-05-26T12:46:11.258Z,6.43
2018-05-26T12:48:40.378Z,5.70
2018-05-26T12:51:10.397Z,6.23
2018-05-26T12:53:40.742Z,7.03
2018-05-26T12:56:09.726Z,6.53
2018-05-26T12:58:39.385Z,6.67
2018-05-26T13:01:08.339Z,6.70
2018-05-26T13:03:37.230Z,7.00
2018-05-26T13:06:06.261Z,7.60
2018-05-26T13:08:35.134Z,7.63
2018-05-26T13:11:04.111Z,8.20
2018-05-26T13:13:33.029Z,7.77
2018-05-26T13:16:01.842Z,6.83
2018-05-26T13:18:30.887Z,8.57
2018-05-26T13:21:00.647Z,8.37
2018-05-26T13:23:29.928Z,8.00
2018-05-26T13:25:58.890Z,7.90
2018-05-26T13:28:28.761Z,6.97
2018-05-26T13:30:58.107Z,7.93
2018-05-26T13:33:27.487Z,7.77
2018-05-26T13:35:56.449Z,6.73
2018-05-26T13:38:25.433Z,7.67
2018-05-26T13:40:54.414Z,7.23
2018-05-26T13:43:24.286Z,6.77
2018-05-26T13:45:53.254Z,6.80
2018-05-26T13:48:22.201Z,6.70
2018-05-26T13:50:52.106Z,6.43
2018-05-26T13:53:21.168Z,6.87
2018-05-26T13:55:50.204Z,5.67
2018-05-26T13:58:20.116Z,6.70
2018-05-26T14:00:49.141Z,5.17
2018-05-26T14:03:18.142Z,6.27
2018-05-26T14:05:48.048Z,6.40
2018-05-26T14:08:17.429Z,5.80
2018-05-26T14:10:47.243Z,6.77
2018-05-26T14:13:17.048Z,6.83
2018-05-26T14:15:46.017Z,6.93
2018-05-26T14:18:14.937Z,6.63
2018-05-26T14:20:44.664Z,8.00
2018-05-26T14:23:13.644Z,6.10
2018-05-26T14:25:42.710Z,6.73
2018-05-26T14:28:13.449Z,6.87
2018-05-26T14:30:42.466Z,7.23
2018-05-26T14:33:11.669Z,7.50
2018-05-26T14:35:40.679Z,6.80
2018-05-26T14:38:09.972Z,6.03
2018-05-26T14:40:38.979Z,7.30
2018-05-26T14:43:08.927Z,7.40
2018-05-26T14:45:39.481Z,7.70
2018-05-26T14:48:08.415Z,7.70
2018-05-26T14:50:39.797Z,7.83
2018-05-26T14:53:08.747Z,7.20
2018-05-26T14:55:37.847Z,7.50
2018-05-26T14:58:10.088Z,7.60
2018-05-26T15:00:39.922Z,7.53
2018-05-26T15:03:09.464Z,8.37
2018-05-26T15:05:38.355Z,8.20
2018-05-26T15:08:07.358Z,7.73
2018-05-26T15:10:36.453Z,8.63
2018-05-26T15:13:05.537Z,8.10
2018-05-26T15:15:34.401Z,8.90
2018-05-26T15:18:03.396Z,8.33
2018-05-26T15:20:32.937Z,7.93
2018-05-26T15:23:02.000Z,7.53
2018-05-26T15:25:31.504Z,8.10
2018-05-26T15:28:00.850Z,8.40
2018-05-26T15:30:30.164Z,9.10
2018-05-26T15:32:59.107Z,10.00
2018-05-26T15:35:30.964Z,8.30
2018-05-26T15:38:00.980Z,7.50
2018-05-26T15:40:30.286Z,8.83
2018-05-26T15:43:00.862Z,8.87
2018-05-26T15:45:29.953Z,9.77
2018-05-26T15:47:59.984Z,8.60
2018-05-26T15:50:29.025Z,9.53
2018-05-26T15:52:58.141Z,9.27
2018-05-26T15:55:27.054Z,9.37
2018-05-26T15:57:57.019Z,9.07
2018-05-26T16:00:26.954Z,9.17
2018-05-26T16:02:56.045Z,8.20
2018-05-26T16:05:26.000Z,8.80
2018-05-26T16:08:01.459Z,8.30
2018-05-26T16:10:33.064Z,9.43
2018-05-26T16:13:03.184Z,8.80
2018-05-26T16:15:32.999Z,9.00
2018-05-26T16:18:01.996Z,9.17
2018-05-26T16:20:31.172Z,8.50
2018-05-26T16:23:00.173Z,8.67
2018-05-26T16:25:29.109Z,9.47
2018-05-26T16:27:57.972Z,9.10
2018-05-26T16:30:27.064Z,10.60
2018-05-26T16:32:56.057Z,9.60
2018-05-26T16:35:25.189Z,9.90
2018-05-26T16:37:54.146Z,8.67
2018-05-26T16:40:24.846Z,9.67
2018-05-26T16:42:53.894Z,9.50
2018-05-26T16:45:23.222Z,9.37
2018-05-26T16:47:55.351Z,9.93
2018-05-26T16:50:24.342Z,10.00
2018-05-26T16:52:53.441Z,10.10
2018-05-26T16:55:23.637Z,9.80
2018-05-26T16:57:52.555Z,10.53
2018-05-26T17:00:22.422Z,11.33
2018-05-26T17:02:51.459Z,9.80
2018-05-26T17:05:20.563Z,10.73
2018-05-26T17:07:49.576Z,11.07
2018-05-26T17:10:18.853Z,10.00
2018-05-26T17:12:47.980Z,10.30
2018-05-26T17:15:17.049Z,10.37
2018-05-26T17:20:21.493Z,10.40
2018-05-26T17:22:52.424Z,9.50
2018-05-26T17:25:21.642Z,9.43
2018-05-26T17:27:50.620Z,9.73
2018-05-26T17:30:20.235Z,10.50
2018-05-26T17:32:49.417Z,9.43
2018-05-26T17:35:18.465Z,10.47
2018-05-26T17:37:47.523Z,10.10
2018-05-26T17:42:50.732Z,11.20
2018-05-26T17:45:20.134Z,10.00
2018-05-26T17:47:49.335Z,10.47
2018-05-26T17:50:18.327Z,9.50
2018-05-26T17:52:48.243Z,9.90
2018-05-26T17:57:53.388Z,10.03
2018-05-26T18:00:24.075Z,10.60
2018-05-26T18:02:53.130Z,9.37
2018-05-26T18:05:22.164Z,11.10
2018-05-26T18:07:51.527Z,9.80
2018-05-26T18:10:25.144Z,10.10
2018-05-26T18:12:54.208Z,10.50
2018-05-26T18:15:23.515Z,9.50
2018-05-26T18:17:52.623Z,10.80
2018-05-26T18:20:24.632Z,9.90
2018-05-26T18:25:30.264Z,9.67
2018-05-26T18:28:00.187Z,9.53
2018-05-26T18:30:30.113Z,10.63
2018-05-26T18:32:59.158Z,10.00
2018-05-26T18:35:28.169Z,10.10
2018-05-26T18:40:32.312Z,10.70
2018-05-26T18:43:01.412Z,11.27
2018-05-26T18:45:30.433Z,11.53
2018-05-26T18:47:59.705Z,9.60
2018-05-26T18:50:28.701Z,11.80
2018-05-26T18:52:58.306Z,10.60
2018-05-26T18:55:27.360Z,10.47
2018-05-26T18:57:56.397Z,11.67
2018-05-26T19:00:25.599Z,10.93
2018-05-26T19:02:55.303Z,11.57
2018-05-26T19:05:24.716Z,9.33
2018-05-26T19:07:55.677Z,11.10
2018-05-26T19:10:24.667Z,11.43
2018-05-26T19:12:53.741Z,11.67
2018-05-26T19:15:23.593Z,12.23
2018-05-26T19:17:52.581Z,12.03
2018-05-26T19:20:21.883Z,12.47
2018-05-26T19:25:25.667Z,11.93
2018-05-26T19:27:55.593Z,11.67
2018-05-26T19:30:25.919Z,12.47
2018-05-26T19:32:54.912Z,12.20
2018-05-26T19:35:24.015Z,12.37
2018-05-26T19:38:00.274Z,12.70
2018-05-26T19:40:30.184Z,12.73
2018-05-26T19:42:59.683Z,12.80
2018-05-26T19:45:29.838Z,12.70
2018-05-26T19:48:01.930Z,13.30
2018-05-26T19:53:05.503Z,13.03
2018-05-26T19:55:34.363Z,13.27
2018-05-26T19:58:04.985Z,14.50
2018-05-26T20:00:34.143Z,13.50
2018-05-26T20:03:03.197Z,14.73
2018-05-26T20:05:32.167Z,14.17
2018-05-26T20:08:01.100Z,15.30
2018-05-26T20:10:31.018Z,12.93
2018-05-26T20:13:03.677Z,13.47
2018-05-26T20:15:32.696Z,13.47
2018-05-26T20:18:02.063Z,13.27
2018-05-26T20:20:32.064Z,13.93
2018-05-26T20:23:01.107Z,13.67
2018-05-26T20:25:30.513Z,13.80
2018-05-26T20:27:59.826Z,13.63
2018-05-26T20:30:30.669Z,14.47
2018-05-26T20:32:59.490Z,12.20
2018-05-26T20:35:28.588Z,14.10
2018-05-26T20:37:58.347Z,13.83
2018-05-26T20:40:27.761Z,13.27
2018-05-26T20:42:57.868Z,13.97
2018-05-26T20:45:28.236Z,14.07
2018-05-26T20:47:57.248Z,13.60
2018-05-26T20:50:27.261Z,12.73
2018-05-26T20:52:56.211Z,12.10
2018-05-26T20:55:25.236Z,14.37
2018-05-26T20:57:54.303Z,14.17
2018-05-26T21:00:23.144Z,11.07
2018-05-26T21:02:52.339Z,12.80
2018-05-26T21:05:22.161Z,13.43
2018-05-26T21:07:51.614Z,15.10
2018-05-26T21:10:20.493Z,13.07
2018-05-26T21:12:49.699Z,13.17
2018-05-26T21:15:18.902Z,11.70
2018-05-26T21:17:47.835Z,13.20
2018-05-26T21:22:50.837Z,13.17
2018-05-26T21:25:19.834Z,13.73
2018-05-26T21:27:49.026Z,13.67
2018-05-26T21:30:18.640Z,12.73
2018-05-26T21:32:48.718Z,13.50
2018-05-26T21:35:18.486Z,12.90
2018-05-26T21:37:47.534Z,13.10
2018-05-26T21:40:16.528Z,12.90
2018-05-26T21:42:46.432Z,13.67
2018-05-26T21:45:15.434Z,13.50
2018-05-26T21:47:45.387Z,12.77
2018-05-26T21:50:14.578Z,14.03
2018-05-26T21:52:43.546Z,13.43
2018-05-26T21:55:12.647Z,13.20
2018-05-26T21:57:42.491Z,12.17
2018-05-26T22:00:11.445Z,12.43
2018-05-26T22:02:41.667Z,12.47
2018-05-26T22:05:13.941Z,11.90
2018-05-26T22:07:43.616Z,11.93
2018-05-26T22:10:12.753Z,13.00
2018-05-26T22:12:43.314Z,12.70
2018-05-26T22:15:12.428Z,13.03
2018-05-26T22:17:41.991Z,12.00
2018-05-26T22:20:12.007Z,12.27
2018-05-26T22:22:42.428Z,11.70
2018-05-26T22:25:11.377Z,12.13
2018-05-26T22:27:40.459Z,11.37
2018-05-26T22:30:09.515Z,13.20
2018-05-26T22:32:38.507Z,11.80
2018-05-26T22:35:08.432Z,11.70
2018-05-26T22:37:37.422Z,11.67
2018-05-26T22:40:07.800Z,13.20
2018-05-26T22:42:37.556Z,12.87
2018-05-26T22:45:07.477Z,12.10
2018-05-26T22:47:36.468Z,12.17
2018-05-26T22:50:05.445Z,11.90
2018-05-26T22:52:34.497Z,12.10
2018-05-26T22:55:03.763Z,12.10
2018-05-26T22:57:33.810Z,11.80
2018-05-26T23:00:02.910Z,11.00
2018-05-26T23:02:32.274Z,12.30
2018-05-26T23:05:03.023Z,13.30
2018-05-26T23:07:33.828Z,12.87
2018-05-26T23:10:03.149Z,12.23
2018-05-26T23:12:33.884Z,12.33
2018-05-26T23:15:03.033Z,12.90
2018-05-26T23:17:32.083Z,12.60
2018-05-26T23:20:04.043Z,13.77
2018-05-26T23:22:33.653Z,12.33
2018-05-26T23:25:02.568Z,11.30
2018-05-26T23:32:40.036Z,12.03
2018-05-26T23:35:09.076Z,12.63
2018-05-26T23:37:38.201Z,12.73
2018-05-26T23:40:07.272Z,13.10
2018-05-26T23:42:36.259Z,13.23
2018-05-26T23:45:05.351Z,11.27
2018-05-26T23:47:34.548Z,11.33
2018-05-26T23:50:03.952Z,12.37
2018-05-26T23:52:32.957Z,10.60
2018-05-26T23:55:05.318Z,11.77
2018-05-26T23:57:34.317Z,11.23
